createdAt,value
2023-11-15T00:00:09.333Z,50.22
2023-11-15T00:01:09.302Z,47.63
2023-11-15T00:02:09.319Z,50.17
2023-11-15T00:03:09.432Z,50.17
2023-11-15T00:04:09.305Z,47.63
2023-11-15T00:05:09.331Z,47.57
2023-11-15T00:06:09.355Z,50.22
2023-11-15T00:07:09.248Z,47.52
2023-11-15T00:08:09.201Z,47.68
2023-11-15T00:09:09.195Z,50.11
2023-11-15T00:10:09.186Z,47.63
2023-11-15T00:11:09.166Z,47.63
2023-11-15T00:12:09.153Z,50.11
2023-11-15T00:13:09.152Z,50.17
2023-11-15T00:14:09.158Z,47.63
2023-11-15T00:15:09.117Z,47.57
2023-11-15T00:16:09.153Z,50.17
2023-11-15T00:17:09.090Z,50.06
2023-11-15T00:18:09.192Z,50.22
2023-11-15T00:19:09.082Z,50.11
2023-11-15T00:20:09.047Z,50.11
2023-11-15T00:21:09.035Z,47.63
2023-11-15T00:22:09.021Z,50.06
2023-11-15T00:23:09.011Z,47.68
2023-11-15T00:24:08.991Z,47.63
2023-11-15T00:25:08.991Z,47.68
2023-11-15T00:26:08.965Z,50.22
2023-11-15T00:27:08.967Z,50.11
2023-11-15T00:28:08.935Z,47.57
2023-11-15T00:29:08.935Z,50.11
2023-11-15T00:30:08.957Z,47.68
2023-11-15T00:31:08.895Z,50.17
2023-11-15T00:32:08.903Z,47.63
2023-11-15T00:33:09.062Z,50.06
2023-11-15T00:34:08.876Z,50.22
2023-11-15T00:35:08.862Z,47.57
2023-11-15T00:36:08.894Z,50.11
2023-11-15T00:37:08.826Z,47.52
2023-11-15T00:38:08.818Z,50.17
2023-11-15T00:39:08.796Z,47.63
2023-11-15T00:40:08.790Z,50.27
2023-11-15T00:41:08.786Z,47.68
2023-11-15T00:42:08.752Z,50.17
2023-11-15T00:43:08.741Z,50.11
2023-11-15T00:44:08.740Z,47.57
2023-11-15T00:45:08.715Z,50.22
2023-11-15T00:46:08.851Z,50.11
2023-11-15T00:47:08.682Z,50.17
2023-11-15T00:48:08.748Z,50.17
2023-11-15T00:49:08.684Z,50.22
2023-11-15T00:50:08.667Z,45.04
2023-11-15T00:51:08.637Z,47.68
2023-11-15T00:52:08.629Z,47.52
2023-11-15T00:53:08.622Z,50.06
2023-11-15T00:54:08.600Z,45.09
2023-11-15T00:55:08.592Z,47.63
2023-11-15T00:56:08.571Z,50.11
2023-11-15T00:57:08.573Z,47.63
2023-11-15T00:58:08.553Z,47.57
2023-11-15T00:59:08.531Z,50.11
2023-11-15T01:00:08.518Z,47.63
2023-11-15T01:01:08.512Z,47.57
2023-11-15T01:02:08.564Z,47.63
2023-11-15T01:03:08.636Z,47.68
2023-11-15T01:04:08.581Z,47.68
2023-11-15T01:05:08.465Z,47.57
2023-11-15T01:06:08.447Z,50.17
2023-11-15T01:07:08.424Z,47.57
2023-11-15T01:08:08.425Z,47.57
2023-11-15T01:09:08.408Z,47.57
2023-11-15T01:10:08.401Z,47.68
2023-11-15T01:11:08.376Z,45.20
2023-11-15T01:12:08.391Z,50.17
2023-11-15T01:13:08.346Z,50.17
2023-11-15T01:14:08.355Z,50.17
2023-11-15T01:15:08.326Z,47.68
2023-11-15T01:16:08.326Z,47.63
2023-11-15T01:17:08.300Z,50.17
2023-11-15T01:18:08.397Z,47.63
2023-11-15T01:19:08.274Z,47.57
2023-11-15T01:20:08.264Z,47.63
2023-11-15T01:21:08.241Z,47.57
2023-11-15T01:22:08.260Z,47.63
2023-11-15T01:23:08.227Z,47.57
2023-11-15T01:24:08.231Z,47.57
2023-11-15T01:25:08.204Z,47.57
2023-11-15T01:26:08.197Z,47.63
2023-11-15T01:27:08.178Z,47.52
2023-11-15T01:28:08.171Z,47.57
2023-11-15T01:29:08.139Z,47.68
2023-11-15T01:30:08.128Z,50.17
2023-11-15T01:31:08.130Z,47.63
2023-11-15T01:32:08.107Z,47.68
2023-11-15T01:33:08.230Z,47.57
2023-11-15T01:34:08.149Z,47.68
2023-11-15T01:35:08.063Z,47.57
2023-11-15T01:36:08.044Z,45.04
2023-11-15T01:37:08.040Z,50.17
2023-11-15T01:38:08.015Z,47.63
2023-11-15T01:39:08.013Z,47.63
2023-11-15T01:40:08.111Z,47.68
2023-11-15T01:41:07.981Z,47.57
2023-11-15T01:42:07.986Z,47.63
2023-11-15T01:43:07.970Z,45.09
2023-11-15T01:44:07.940Z,47.57
2023-11-15T01:45:07.930Z,45.04
2023-11-15T01:46:07.972Z,47.63
2023-11-15T01:47:07.913Z,47.63
2023-11-15T01:48:07.953Z,47.68
2023-11-15T01:49:07.888Z,47.74
2023-11-15T01:50:07.900Z,47.63
2023-11-15T01:51:07.862Z,45.04
2023-11-15T01:52:07.847Z,47.57
2023-11-15T01:53:07.824Z,47.63
2023-11-15T01:54:07.815Z,47.63
2023-11-15T01:55:07.790Z,50.17
2023-11-15T01:56:07.785Z,45.09
2023-11-15T01:57:07.766Z,47.63
2023-11-15T01:58:07.758Z,47.63
2023-11-15T01:59:07.740Z,50.11
2023-11-15T02:00:07.739Z,47.57
2023-11-15T02:01:07.722Z,47.52
2023-11-15T02:02:07.702Z,47.63
2023-11-15T02:03:07.834Z,42.55
2023-11-15T02:04:07.795Z,47.57
2023-11-15T02:05:07.660Z,47.63
2023-11-15T02:06:07.678Z,47.57
2023-11-15T02:07:07.637Z,47.63
2023-11-15T02:08:07.632Z,47.57
2023-11-15T02:09:07.615Z,45.14
2023-11-15T02:10:07.615Z,47.74
2023-11-15T02:11:07.594Z,50.17
2023-11-15T02:12:07.569Z,47.63
2023-11-15T02:13:07.559Z,47.57
2023-11-15T02:14:07.540Z,47.68
2023-11-15T02:15:07.548Z,47.63
2023-11-15T02:16:07.535Z,47.68
2023-11-15T02:17:07.563Z,47.57
2023-11-15T02:18:07.573Z,47.57
2023-11-15T02:19:07.484Z,47.63
2023-11-15T02:20:07.469Z,45.04
2023-11-15T02:21:07.487Z,45.09
2023-11-15T02:22:07.569Z,44.98
2023-11-15T02:23:07.425Z,45.09
2023-11-15T02:24:07.429Z,44.93
2023-11-15T02:25:07.398Z,47.57
2023-11-15T02:26:07.395Z,45.14
2023-11-15T02:27:07.379Z,47.68
2023-11-15T02:28:07.375Z,49.63
2023-11-15T02:29:07.363Z,45.14
2023-11-15T02:30:07.339Z,45.09
2023-11-15T02:31:07.407Z,47.68
2023-11-15T02:32:07.314Z,47.52
2023-11-15T02:33:07.397Z,47.63
2023-11-15T02:34:07.287Z,45.04
2023-11-15T02:35:07.337Z,45.04
2023-11-15T02:36:07.264Z,47.74
2023-11-15T02:37:07.240Z,47.63
2023-11-15T02:38:07.263Z,47.57
2023-11-15T02:39:07.214Z,47.63
2023-11-15T02:40:07.211Z,45.14
2023-11-15T02:41:07.207Z,47.68
2023-11-15T02:42:07.186Z,47.57
2023-11-15T02:43:07.183Z,45.14
2023-11-15T02:44:07.219Z,45.09
2023-11-15T02:45:07.176Z,47.57
2023-11-15T02:46:07.169Z,45.09
2023-11-15T02:47:07.118Z,45.14
2023-11-15T02:48:07.157Z,47.57
2023-11-15T02:49:07.122Z,47.68
2023-11-15T02:50:07.075Z,45.04
2023-11-15T02:51:07.056Z,47.68
2023-11-15T02:52:07.053Z,47.63
2023-11-15T02:53:07.043Z,47.74
2023-11-15T02:54:07.061Z,45.09
2023-11-15T02:55:07.009Z,47.68
2023-11-15T02:56:07.004Z,47.63
2023-11-15T02:57:06.991Z,45.04
2023-11-15T02:58:06.980Z,45.04
2023-11-15T02:59:06.950Z,45.09
2023-11-15T03:00:06.938Z,47.57
2023-11-15T03:01:06.924Z,45.09
2023-11-15T03:02:06.921Z,45.09
2023-11-15T03:03:07.032Z,47.63
2023-11-15T03:04:06.983Z,45.04
2023-11-15T03:05:06.888Z,45.14
2023-11-15T03:06:06.911Z,47.68
2023-11-15T03:07:06.858Z,45.04
2023-11-15T03:08:06.990Z,45.09
2023-11-15T03:09:06.834Z,47.63
2023-11-15T03:10:06.848Z,47.68
2023-11-15T03:11:06.795Z,45.09
2023-11-15T03:12:06.793Z,42.55
2023-11-15T03:13:06.816Z,45.04
2023-11-15T03:14:06.763Z,45.09
2023-11-15T03:15:06.787Z,47.57
2023-11-15T03:16:06.743Z,47.63
2023-11-15T03:17:06.723Z,47.57
2023-11-15T03:18:06.774Z,47.63
2023-11-15T03:19:06.694Z,45.09
2023-11-15T03:20:06.698Z,42.55
2023-11-15T03:21:06.671Z,45.09
2023-11-15T03:22:06.663Z,45.09
2023-11-15T03:23:06.643Z,44.98
2023-11-15T03:24:06.627Z,45.09
2023-11-15T03:25:06.623Z,45.04
2023-11-15T03:26:06.634Z,45.04
2023-11-15T03:27:06.591Z,47.57
2023-11-15T03:28:06.588Z,45.09
2023-11-15T03:29:06.564Z,47.63
2023-11-15T03:30:06.566Z,45.04
2023-11-15T03:31:06.539Z,47.63
2023-11-15T03:32:06.560Z,45.14
2023-11-15T03:33:06.598Z,42.55
2023-11-15T03:34:06.529Z,47.68
2023-11-15T03:35:06.500Z,47.63
2023-11-15T03:36:06.482Z,45.09
2023-11-15T03:37:06.473Z,45.04
2023-11-15T03:38:06.459Z,45.04
2023-11-15T03:39:06.429Z,45.09
2023-11-15T03:40:06.431Z,45.14
2023-11-15T03:41:06.399Z,45.09
2023-11-15T03:42:06.426Z,45.09
2023-11-15T03:43:06.392Z,45.09
2023-11-15T03:44:06.367Z,45.04
2023-11-15T03:45:06.468Z,45.09
2023-11-15T03:46:06.349Z,45.14
2023-11-15T03:47:06.335Z,47.63
2023-11-15T03:48:06.392Z,47.68
2023-11-15T03:49:06.306Z,45.09
2023-11-15T03:50:06.298Z,47.63
2023-11-15T03:51:06.274Z,45.04
2023-11-15T03:52:06.261Z,47.63
2023-11-15T03:53:06.252Z,45.04
2023-11-15T03:54:06.243Z,45.04
2023-11-15T03:55:06.240Z,45.09
2023-11-15T03:56:06.205Z,45.04
2023-11-15T03:57:06.198Z,45.04
2023-11-15T03:58:06.216Z,45.09
2023-11-15T03:59:06.174Z,45.20
2023-11-15T04:00:06.167Z,45.04
2023-11-15T04:01:06.151Z,45.09
2023-11-15T04:02:06.164Z,45.04
2023-11-15T04:03:06.428Z,45.09
2023-11-15T04:04:06.368Z,45.09
2023-11-15T04:05:06.167Z,47.63
2023-11-15T04:06:06.098Z,45.14
2023-11-15T04:07:06.065Z,47.68
2023-11-15T04:08:06.049Z,45.04
2023-11-15T04:09:06.044Z,42.50
2023-11-15T04:10:06.032Z,42.55
2023-11-15T04:11:06.015Z,45.04
2023-11-15T04:12:06.007Z,45.20
2023-11-15T04:13:05.997Z,42.55
2023-11-15T04:14:06.030Z,47.63
2023-11-15T04:15:05.955Z,45.04
2023-11-15T04:16:06.018Z,47.63
2023-11-15T04:17:05.936Z,45.09
2023-11-15T04:18:06.067Z,47.57
2023-11-15T04:19:05.933Z,45.04
2023-11-15T04:20:05.923Z,45.09
2023-11-15T04:21:05.889Z,45.09
2023-11-15T04:22:12.363Z,45.04
2023-11-15T04:23:05.858Z,45.09
2023-11-15T04:24:05.869Z,42.61
2023-11-15T04:25:05.870Z,45.09
2023-11-15T04:26:05.839Z,47.74
2023-11-15T04:27:05.833Z,45.14
2023-11-15T04:28:05.815Z,45.47
2023-11-15T04:29:05.801Z,45.09
2023-11-15T04:30:05.804Z,45.09
2023-11-15T04:31:05.753Z,45.14
2023-11-15T04:32:05.745Z,44.98
2023-11-15T04:33:05.858Z,45.09
2023-11-15T04:34:05.710Z,44.98
2023-11-15T04:35:05.707Z,45.09
2023-11-15T04:36:05.732Z,45.04
2023-11-15T04:37:05.693Z,45.14
2023-11-15T04:38:05.682Z,42.55
2023-11-15T04:39:05.681Z,45.09
2023-11-15T04:40:05.650Z,47.74
2023-11-15T04:41:05.639Z,47.57
2023-11-15T04:42:05.717Z,42.55
2023-11-15T04:43:05.612Z,47.57
2023-11-15T04:44:05.644Z,42.55
2023-11-15T04:45:05.753Z,42.61
2023-11-15T04:46:05.639Z,45.04
2023-11-15T04:47:05.562Z,45.04
2023-11-15T04:48:05.595Z,45.09
2023-11-15T04:49:05.535Z,44.98
2023-11-15T04:50:05.538Z,45.09
2023-11-15T04:51:05.552Z,45.04
2023-11-15T04:52:05.497Z,45.04
2023-11-15T04:53:05.468Z,45.04
2023-11-15T04:54:05.522Z,42.50
2023-11-15T04:55:05.454Z,45.09
2023-11-15T04:56:05.436Z,45.14
2023-11-15T04:57:05.506Z,44.98
2023-11-15T04:58:05.412Z,45.04
2023-11-15T04:59:05.424Z,45.20
2023-11-15T05:00:05.456Z,45.09
2023-11-15T05:01:05.402Z,45.04
2023-11-15T05:02:05.379Z,42.55
2023-11-15T05:03:05.565Z,45.04
2023-11-15T05:04:05.547Z,45.09
2023-11-15T05:05:05.356Z,45.04
2023-11-15T05:06:05.356Z,45.09
2023-11-15T05:07:05.309Z,45.04
2023-11-15T05:08:05.281Z,45.09
2023-11-15T05:09:05.266Z,45.14
2023-11-15T05:10:05.254Z,42.50
2023-11-15T05:11:05.236Z,45.09
2023-11-15T05:12:05.228Z,45.09
2023-11-15T05:13:05.220Z,42.55
2023-11-15T05:14:05.209Z,45.04
2023-11-15T05:15:05.189Z,42.50
2023-11-15T05:16:05.230Z,45.04
2023-11-15T05:17:05.160Z,45.09
2023-11-15T05:18:05.325Z,45.14
2023-11-15T05:19:05.137Z,45.09
2023-11-15T05:20:05.138Z,42.50
2023-11-15T05:21:05.137Z,45.14
2023-11-15T05:22:05.111Z,44.98
2023-11-15T05:23:05.098Z,45.09
2023-11-15T05:24:05.096Z,45.04
2023-11-15T05:25:05.056Z,47.57
2023-11-15T05:26:05.042Z,45.14
2023-11-15T05:27:05.098Z,44.98
2023-11-15T05:28:05.028Z,45.09
2023-11-15T05:29:05.058Z,45.04
2023-11-15T05:30:04.994Z,45.04
2023-11-15T05:31:04.985Z,47.68
2023-11-15T05:32:04.970Z,42.44
2023-11-15T05:33:05.012Z,42.50
2023-11-15T05:34:04.959Z,45.09
2023-11-15T05:35:04.938Z,45.09
2023-11-15T05:36:04.912Z,45.09
2023-11-15T05:37:04.895Z,47.68
2023-11-15T05:38:04.894Z,45.09
2023-11-15T05:39:04.982Z,45.09
2023-11-15T05:40:04.863Z,42.55
2023-11-15T05:41:04.855Z,42.50
2023-11-15T05:42:04.846Z,42.44
2023-11-15T05:43:04.817Z,45.09
2023-11-15T05:44:04.822Z,42.55
2023-11-15T05:45:04.837Z,45.09
2023-11-15T05:46:04.810Z,45.09
2023-11-15T05:47:04.772Z,42.50
2023-11-15T05:48:04.791Z,45.09
2023-11-15T05:49:04.746Z,45.14
2023-11-15T05:50:04.754Z,45.04
2023-11-15T05:51:04.725Z,45.09
2023-11-15T05:52:04.726Z,42.50
2023-11-15T05:53:04.694Z,45.14
2023-11-15T05:54:04.698Z,45.09
2023-11-15T05:55:04.667Z,45.14
2023-11-15T05:56:04.648Z,42.23
2023-11-15T05:57:04.688Z,42.50
2023-11-15T05:58:04.635Z,45.04
2023-11-15T05:59:04.610Z,45.04
2023-11-15T06:00:04.625Z,45.14
2023-11-15T06:01:04.588Z,45.09
2023-11-15T06:02:04.618Z,42.50
2023-11-15T06:03:04.634Z,47.57
2023-11-15T06:04:04.554Z,45.09
2023-11-15T06:05:04.551Z,42.61
2023-11-15T06:06:04.675Z,44.98
2023-11-15T06:07:04.507Z,45.09
2023-11-15T06:08:05.367Z,44.98
2023-11-15T06:09:04.490Z,45.09
2023-11-15T06:10:04.485Z,45.14
2023-11-15T06:11:04.463Z,42.55
2023-11-15T06:12:04.462Z,42.50
2023-11-15T06:13:04.424Z,45.09
2023-11-15T06:14:04.426Z,45.04
2023-11-15T06:15:04.468Z,45.14
2023-11-15T06:16:04.385Z,45.09
2023-11-15T06:17:04.418Z,45.09
2023-11-15T06:18:04.449Z,45.14
2023-11-15T06:19:04.345Z,42.55
2023-11-15T06:20:07.028Z,45.09
2023-11-15T06:21:04.353Z,45.09
2023-11-15T06:22:04.385Z,45.20
2023-11-15T06:23:04.304Z,45.09
2023-11-15T06:24:04.372Z,45.04
2023-11-15T06:25:04.272Z,45.04
2023-11-15T06:26:04.268Z,45.09
2023-11-15T06:27:04.279Z,45.04
2023-11-15T06:28:04.260Z,45.04
2023-11-15T06:29:04.232Z,45.09
2023-11-15T06:30:04.333Z,45.09
2023-11-15T06:31:04.197Z,45.09
2023-11-15T06:32:04.187Z,42.44
2023-11-15T06:33:04.290Z,45.09
2023-11-15T06:34:04.252Z,45.20
2023-11-15T06:35:04.155Z,45.14
2023-11-15T06:36:04.219Z,45.09
2023-11-15T06:37:04.118Z,42.55
2023-11-15T06:38:04.151Z,45.14
2023-11-15T06:39:04.117Z,45.04
2023-11-15T06:40:04.074Z,42.50
2023-11-15T06:41:04.074Z,42.50
2023-11-15T06:42:04.088Z,42.50
2023-11-15T06:43:04.035Z,42.50
2023-11-15T06:44:04.034Z,42.55
2023-11-15T06:45:04.071Z,45.09
2023-11-15T06:46:04.001Z,44.98
2023-11-15T06:47:04.035Z,45.09
2023-11-15T06:48:04.069Z,45.14
2023-11-15T06:49:03.952Z,44.98
2023-11-15T06:50:03.950Z,42.50
2023-11-15T06:51:04.002Z,42.55
2023-11-15T06:52:03.915Z,42.55
2023-11-15T06:53:03.911Z,45.04
2023-11-15T06:54:04.125Z,42.55
2023-11-15T06:55:03.889Z,45.04
2023-11-15T06:56:03.873Z,45.09
2023-11-15T06:57:03.945Z,45.09
2023-11-15T06:58:03.857Z,42.55
2023-11-15T06:59:03.833Z,42.50
2023-11-15T07:00:03.937Z,44.82
2023-11-15T07:01:03.843Z,45.09
2023-11-15T07:02:03.802Z,47.63
2023-11-15T07:03:03.925Z,45.09
2023-11-15T07:04:03.952Z,42.55
2023-11-15T07:05:03.761Z,45.09
2023-11-15T07:06:03.791Z,45.09
2023-11-15T07:07:03.738Z,45.14
2023-11-15T07:08:03.726Z,45.09
2023-11-15T07:09:03.840Z,45.14
2023-11-15T07:10:03.727Z,45.09
2023-11-15T07:11:03.681Z,42.50
2023-11-15T07:12:03.669Z,42.50
2023-11-15T07:13:03.677Z,42.50
2023-11-15T07:14:03.646Z,42.50
2023-11-15T07:15:03.706Z,45.04
2023-11-15T07:16:03.726Z,42.50
2023-11-15T07:17:03.599Z,42.50
2023-11-15T07:18:03.647Z,40.18
2023-11-15T07:19:03.578Z,42.55
2023-11-15T07:20:03.571Z,42.44
2023-11-15T07:21:03.601Z,42.44
2023-11-15T07:22:03.527Z,45.09
2023-11-15T07:23:03.520Z,42.61
2023-11-15T07:24:03.539Z,42.55
2023-11-15T07:25:03.487Z,42.50
2023-11-15T07:26:03.521Z,45.04
2023-11-15T07:27:03.532Z,42.34
2023-11-15T07:28:03.447Z,42.50
2023-11-15T07:29:03.459Z,42.50
2023-11-15T07:30:03.486Z,42.55
2023-11-15T07:31:03.413Z,45.09
2023-11-15T07:32:03.439Z,42.50
2023-11-15T07:33:03.498Z,42.50
2023-11-15T07:34:03.378Z,42.55
2023-11-15T07:35:03.365Z,42.50
2023-11-15T07:36:03.363Z,45.09
2023-11-15T07:37:03.336Z,42.50
2023-11-15T07:38:03.344Z,45.31
2023-11-15T07:39:03.398Z,45.04
2023-11-15T07:40:03.301Z,45.20
2023-11-15T07:41:03.279Z,45.09
2023-11-15T07:42:03.354Z,45.20
2023-11-15T07:43:03.260Z,42.71
2023-11-15T07:44:03.246Z,42.44
2023-11-15T07:45:03.388Z,45.09
2023-11-15T07:46:03.228Z,47.63
2023-11-15T07:47:03.225Z,45.09
2023-11-15T07:48:03.249Z,45.04
2023-11-15T07:49:03.176Z,45.04
2023-11-15T07:50:03.183Z,42.39
2023-11-15T07:51:03.178Z,42.55
2023-11-15T07:52:03.147Z,42.55
2023-11-15T07:53:03.133Z,45.14
2023-11-15T07:54:03.214Z,42.50
2023-11-15T07:55:03.108Z,42.66
2023-11-15T07:56:03.103Z,45.04
2023-11-15T07:57:03.137Z,45.04
2023-11-15T07:58:03.096Z,45.09
2023-11-15T07:59:03.053Z,45.14
2023-11-15T08:00:03.161Z,40.12
2023-11-15T08:01:03.029Z,40.18
2023-11-15T08:02:03.015Z,42.44
2023-11-15T08:03:03.071Z,42.50
2023-11-15T08:04:03.222Z,45.04
2023-11-15T08:05:03.014Z,45.09
2023-11-15T08:06:03.008Z,45.09
2023-11-15T08:07:02.957Z,42.50
2023-11-15T08:08:03.467Z,42.50
2023-11-15T08:09:02.943Z,40.23
2023-11-15T08:10:02.924Z,42.50
2023-11-15T08:11:02.903Z,42.50
2023-11-15T08:12:02.930Z,42.55
2023-11-15T08:13:02.867Z,42.55
2023-11-15T08:14:02.891Z,42.50
2023-11-15T08:15:02.919Z,42.55
2023-11-15T08:16:02.841Z,45.09
2023-11-15T08:17:02.854Z,42.50
2023-11-15T08:18:02.976Z,42.55
2023-11-15T08:19:02.900Z,42.44
2023-11-15T08:20:02.785Z,45.04
2023-11-15T08:21:02.870Z,42.55
2023-11-15T08:22:02.746Z,45.09
2023-11-15T08:23:02.754Z,42.50
2023-11-15T08:24:02.853Z,44.98
2023-11-15T08:25:02.708Z,45.04
2023-11-15T08:26:02.714Z,45.14
2023-11-15T08:27:02.723Z,45.04
2023-11-15T08:28:03.212Z,42.55
2023-11-15T08:29:02.663Z,42.50
2023-11-15T08:30:02.716Z,45.14
2023-11-15T08:31:02.634Z,42.50
2023-11-15T08:32:02.623Z,45.09
2023-11-15T08:33:02.740Z,42.50
2023-11-15T08:34:02.716Z,42.55
2023-11-15T08:35:02.586Z,42.55
2023-11-15T08:36:02.582Z,42.50
2023-11-15T08:37:02.549Z,45.09
2023-11-15T08:38:02.556Z,42.50
2023-11-15T08:39:02.581Z,40.12
2023-11-15T08:40:05.222Z,42.55
2023-11-15T08:41:03.573Z,44.39
2023-11-15T08:42:02.570Z,42.50
2023-11-15T08:43:02.480Z,42.61
2023-11-15T08:44:02.465Z,42.55
2023-11-15T08:45:02.538Z,42.55
2023-11-15T08:46:02.551Z,42.55
2023-11-15T08:47:02.427Z,42.55
2023-11-15T08:48:02.464Z,42.55
2023-11-15T08:49:02.555Z,42.50
2023-11-15T08:50:02.387Z,42.50
2023-11-15T08:51:02.442Z,42.50
2023-11-15T08:52:02.372Z,42.50
2023-11-15T08:53:02.348Z,42.55
2023-11-15T08:54:02.370Z,44.98
2023-11-15T08:55:02.334Z,42.61
2023-11-15T08:56:02.303Z,45.04
2023-11-15T08:57:02.340Z,42.50
2023-11-15T08:58:02.292Z,42.55
2023-11-15T08:59:02.274Z,45.04
2023-11-15T09:00:02.375Z,45.14
2023-11-15T09:01:02.278Z,42.55
2023-11-15T09:02:02.282Z,45.09
2023-11-15T09:03:02.336Z,42.55
2023-11-15T09:04:02.292Z,42.50
2023-11-15T09:05:02.255Z,42.55
2023-11-15T09:06:02.193Z,42.50
2023-11-15T09:07:02.159Z,42.44
2023-11-15T09:08:02.156Z,42.44
2023-11-15T09:09:02.245Z,42.50
2023-11-15T09:10:02.127Z,42.50
2023-11-15T09:11:02.112Z,42.50
2023-11-15T09:12:02.170Z,42.50
2023-11-15T09:13:02.082Z,42.50
2023-11-15T09:14:02.062Z,42.66
2023-11-15T09:15:02.168Z,42.55
2023-11-15T09:16:02.046Z,45.09
2023-11-15T09:17:02.068Z,45.04
2023-11-15T09:18:02.100Z,42.55
2023-11-15T09:19:02.004Z,42.44
2023-11-15T09:20:02.001Z,40.18
2023-11-15T09:21:02.007Z,40.18
2023-11-15T09:22:01.961Z,42.61
2023-11-15T09:23:01.958Z,42.50
2023-11-15T09:24:01.964Z,42.50
2023-11-15T09:25:07.288Z,42.55
2023-11-15T09:26:02.948Z,42.50
2023-11-15T09:27:01.998Z,42.50
2023-11-15T09:28:01.889Z,42.50
2023-11-15T09:29:01.868Z,45.09
2023-11-15T09:30:01.935Z,42.50
2023-11-15T09:31:01.853Z,44.98
2023-11-15T09:32:01.831Z,42.55
2023-11-15T09:33:01.908Z,42.50
2023-11-15T09:34:01.973Z,42.61
2023-11-15T09:35:01.820Z,45.09
2023-11-15T09:36:02.186Z,42.55
2023-11-15T09:37:01.761Z,42.50
2023-11-15T09:38:01.757Z,42.50
2023-11-15T09:39:01.768Z,42.12
2023-11-15T09:40:01.726Z,45.04
2023-11-15T09:41:01.851Z,40.18
2023-11-15T09:42:01.727Z,42.50
2023-11-15T09:43:01.678Z,42.34
2023-11-15T09:44:01.674Z,42.55
2023-11-15T09:45:01.687Z,42.55
2023-11-15T09:46:01.660Z,42.55
2023-11-15T09:47:01.647Z,42.50
2023-11-15T09:48:01.678Z,42.50
2023-11-15T09:50:01.625Z,45.09
2023-11-15T09:51:01.766Z,42.50
2023-11-15T09:52:01.572Z,42.50
2023-11-15T09:53:01.557Z,42.50
2023-11-15T09:54:08.715Z,42.50
2023-11-15T09:55:02.554Z,45.14
2023-11-15T09:56:01.534Z,42.55
2023-11-15T09:57:01.516Z,42.50
2023-11-15T09:58:01.480Z,42.50
2023-11-15T09:59:01.475Z,42.44
2023-11-15T10:00:12.063Z,45.09
2023-11-15T10:01:02.577Z,45.04
2023-11-15T10:02:01.436Z,42.50
2023-11-15T10:03:01.586Z,42.61
2023-11-15T10:04:01.489Z,42.50
2023-11-15T10:05:01.412Z,45.09
2023-11-15T10:06:01.768Z,42.50
2023-11-15T10:07:06.127Z,42.50
2023-11-15T10:08:01.457Z,40.18
2023-11-15T10:09:01.392Z,45.09
2023-11-15T10:10:01.331Z,42.50
2023-11-15T10:11:01.328Z,40.18
2023-11-15T10:12:01.313Z,40.23
2023-11-15T10:13:01.286Z,45.09
2023-11-15T10:14:01.285Z,42.55
2023-11-15T10:15:01.310Z,42.55
2023-11-15T10:16:01.285Z,42.50
2023-11-15T10:17:01.243Z,40.12
2023-11-15T10:18:01.296Z,42.50
2023-11-15T10:19:01.219Z,40.18
2023-11-15T10:20:01.196Z,42.44
2023-11-15T10:21:01.236Z,42.88
2023-11-15T10:22:01.200Z,42.55
2023-11-15T10:23:01.181Z,45.04
2023-11-15T10:24:01.178Z,42.50
2023-11-15T10:25:01.134Z,42.50
2023-11-15T10:26:01.135Z,42.44
2023-11-15T10:27:01.199Z,42.50
2023-11-15T10:28:01.099Z,42.50
2023-11-15T10:29:01.088Z,42.50
2023-11-15T10:30:01.243Z,42.50
2023-11-15T10:31:01.064Z,42.55
2023-11-15T10:32:03.187Z,42.50
2023-11-15T10:33:01.077Z,42.50
2023-11-15T10:34:01.012Z,42.44
2023-11-15T10:35:01.024Z,42.61
2023-11-15T10:36:01.021Z,42.50
2023-11-15T10:37:02.431Z,40.23
2023-11-15T10:38:01.055Z,42.61
2023-11-15T10:39:01.177Z,42.44
2023-11-15T10:40:00.939Z,42.50
2023-11-15T10:41:00.932Z,42.50
2023-11-15T10:42:00.941Z,42.44
2023-11-15T10:43:00.917Z,42.55
2023-11-15T10:44:00.891Z,42.55
2023-11-15T10:45:00.936Z,42.50
2023-11-15T10:46:00.961Z,42.50
2023-11-15T10:47:00.846Z,42.50
2023-11-15T10:48:00.887Z,42.55
2023-11-15T10:49:00.842Z,42.50
2023-11-15T10:50:00.809Z,42.50
2023-11-15T10:51:00.854Z,42.66
2023-11-15T10:52:00.813Z,45.14
2023-11-15T10:53:00.771Z,42.55
2023-11-15T10:54:00.819Z,42.50
2023-11-15T10:55:00.754Z,42.44
2023-11-15T10:56:00.740Z,45.04
2023-11-15T10:57:00.750Z,42.50
2023-11-15T10:58:00.721Z,42.44
2023-11-15T10:59:00.704Z,45.09
2023-11-15T11:00:00.934Z,42.71
2023-11-15T11:01:00.765Z,45.04
2023-11-15T11:02:00.705Z,42.50
2023-11-15T11:03:00.758Z,42.55
2023-11-15T11:04:00.784Z,42.50
2023-11-15T11:05:00.720Z,42.50
2023-11-15T11:06:00.704Z,42.50
2023-11-15T11:07:00.588Z,44.98
2023-11-15T11:08:00.584Z,42.50
2023-11-15T11:09:00.622Z,40.28
2023-11-15T11:10:00.583Z,40.12
2023-11-15T11:11:03.477Z,42.50
2023-11-15T11:12:00.540Z,42.50
2023-11-15T11:13:00.531Z,42.50
2023-11-15T11:14:00.497Z,40.18
2023-11-15T11:15:00.520Z,42.44
2023-11-15T11:16:00.517Z,45.09
2023-11-15T11:17:00.552Z,42.55
2023-11-15T11:18:00.572Z,42.50
2023-11-15T11:19:00.506Z,42.55
2023-11-15T11:20:00.415Z,42.55
2023-11-15T11:21:00.445Z,40.18
2023-11-15T11:22:00.392Z,42.50
2023-11-15T11:23:00.398Z,42.44
2023-11-15T11:24:00.488Z,42.55
2023-11-15T11:25:00.368Z,42.55
2023-11-15T11:26:00.373Z,42.55
2023-11-15T11:27:00.409Z,42.50
2023-11-15T11:28:00.323Z,42.50
2023-11-15T11:29:00.311Z,45.09
2023-11-15T11:30:00.437Z,45.14
2023-11-15T11:31:00.275Z,42.55
2023-11-15T11:32:00.276Z,42.50
2023-11-15T11:33:00.353Z,40.23
2023-11-15T11:34:00.234Z,42.50
2023-11-15T11:35:00.225Z,42.50
2023-11-15T11:36:00.339Z,42.55
2023-11-15T11:37:00.239Z,42.55
2023-11-15T11:38:00.234Z,42.44
2023-11-15T11:39:00.250Z,42.55
2023-11-15T11:40:00.215Z,42.50
2023-11-15T11:41:00.156Z,42.50
2023-11-15T11:42:00.231Z,42.50
2023-11-15T11:43:00.133Z,40.12
2023-11-15T11:44:00.129Z,42.50
2023-11-15T11:45:00.149Z,42.55
2023-11-15T11:46:00.135Z,42.55
2023-11-15T11:47:00.066Z,42.55
2023-11-15T11:48:00.144Z,42.50
2023-11-15T11:49:00.048Z,42.55
2023-11-15T11:50:00.050Z,42.55
2023-11-15T11:51:00.036Z,42.50
2023-11-15T11:52:00.012Z,40.23
2023-11-15T11:52:59.991Z,42.50
2023-11-15T11:54:00.004Z,45.09
2023-11-15T11:54:59.962Z,42.44
2023-11-15T11:55:59.954Z,40.23
2023-11-15T11:56:59.991Z,42.61
2023-11-15T11:57:59.948Z,40.12
2023-11-15T11:58:59.945Z,42.50
2023-11-15T11:59:59.942Z,42.61
2023-11-15T12:00:59.883Z,42.61
2023-11-15T12:01:59.945Z,40.18
2023-11-15T12:03:03.621Z,42.61
2023-11-15T12:04:01.087Z,42.55
2023-11-15T12:04:59.850Z,42.50
2023-11-15T12:05:59.837Z,40.12
2023-11-15T12:06:59.829Z,42.50
2023-11-15T12:07:59.805Z,42.44
2023-11-15T12:08:59.785Z,42.55
2023-11-15T12:09:59.773Z,40.12
2023-11-15T12:10:59.922Z,42.55
2023-11-15T12:11:59.771Z,45.20
2023-11-15T12:12:59.726Z,42.55
2023-11-15T12:13:59.759Z,42.50
2023-11-15T12:14:59.838Z,40.18
2023-11-15T12:15:59.701Z,40.23
2023-11-15T12:16:59.700Z,42.55
2023-11-15T12:17:59.768Z,42.61
2023-11-15T12:18:59.659Z,42.50
2023-11-15T12:19:59.635Z,45.09
2023-11-15T12:20:59.650Z,42.55
2023-11-15T12:21:59.620Z,42.50
2023-11-15T12:22:59.602Z,42.50
2023-11-15T12:23:59.609Z,42.39
2023-11-15T12:24:59.567Z,42.50
2023-11-15T12:25:59.564Z,40.18
2023-11-15T12:26:59.619Z,42.55
2023-11-15T12:27:59.528Z,42.55
2023-11-15T12:28:59.523Z,40.28
2023-11-15T12:29:59.542Z,42.55
2023-11-15T12:30:59.526Z,42.50
2023-11-15T12:31:59.477Z,42.50
2023-11-15T12:32:59.554Z,42.50
2023-11-15T12:33:59.456Z,45.09
2023-11-15T12:34:59.437Z,42.50
2023-11-15T12:35:59.489Z,42.50
2023-11-15T12:36:59.443Z,42.50
2023-11-15T12:37:59.421Z,42.44
2023-11-15T12:38:59.499Z,42.50
2023-11-15T12:39:59.371Z,42.55
2023-11-15T12:40:59.360Z,42.55
2023-11-15T12:41:59.378Z,42.50
2023-11-15T12:42:59.331Z,42.50
2023-11-15T12:43:59.337Z,42.61
2023-11-15T12:44:59.335Z,40.12
2023-11-15T12:45:59.360Z,40.23
2023-11-15T12:46:59.531Z,40.12
2023-11-15T12:47:59.334Z,39.04
2023-11-15T12:48:59.276Z,40.18
2023-11-15T12:49:59.249Z,42.50
2023-11-15T12:50:59.279Z,42.61
2023-11-15T12:51:59.219Z,42.55
2023-11-15T12:52:59.200Z,42.50